Time;durP1;ratioP1;P1;durP2;ratioP2;P2;SDS_P1;SDS_P2;PMS_P1;PMS_P2;Temp;Humidity;BMP_temperature;BMP_pressure;BME280_temperature;BME280_humidity;BME280_pressure;Samples;Min_cycle;Max_cycle;Signal;HPM_P1;HPM_P2
2022/09/14 00:00:16;;;;;;;14.37;6.90;;;;;;;12.16;74.89;100116.31;124815;1099;102364;-79
2022/09/14 00:03:10;;;;;;;16.70;6.90;;;;;;;12.15;74.76;100110.15;124859;1099;104220;-78
2022/09/14 00:05:42;;;;;;;13.37;6.77;;;;;;;12.16;74.82;100097.91;124862;1098;102991;-79
2022/09/14 00:08:17;;;;;;;15.00;6.80;;;;;;;12.17;74.77;100107.55;124866;1099;103289;-79
2022/09/14 00:10:49;;;;;;;13.40;6.63;;;;;;;12.15;75.01;100096.12;124825;1099;102792;-79
2022/09/14 00:13:20;;;;;;;14.00;6.70;;;;;;;12.15;75.03;100096.12;124823;1099;104163;-78
2022/09/14 00:15:51;;;;;;;13.97;6.40;;;;;;;12.15;75.04;100104.89;124828;1099;102361;-79
2022/09/14 00:18:23;;;;;;;12.80;6.77;;;;;;;12.14;74.96;100103.13;124780;1099;102050;-79
2022/09/14 00:20:58;;;;;;;14.53;6.90;;;;;;;12.12;75.13;100099.55;124802;1099;104373;-79
2022/09/14 00:23:30;;;;;;;11.37;5.87;;;;;;;12.12;75.26;100103.94;124856;1099;102899;-79
2022/09/14 00:26:06;;;;;;;13.73;6.83;;;;;;;12.11;75.22;100108.33;124931;1099;102200;-79
2022/09/14 00:28:41;;;;;;;14.17;6.53;;;;;;;12.10;75.17;100111.80;124879;1097;102706;-78
2022/09/14 00:31:13;;;;;;;13.93;7.43;;;;;;;12.12;75.35;100110.08;125759;1099;104287;-80
2022/09/14 00:33:47;;;;;;;14.47;7.20;;;;;;;12.13;75.47;100105.73;125684;1099;104256;-79
2022/09/14 00:36:20;;;;;;;12.00;6.83;;;;;;;12.15;75.48;100104.89;125692;1099;104169;-79
2022/09/14 00:38:52;;;;;;;14.80;6.85;;;;;;;12.16;75.68;100111.06;125629;1099;104195;-79
2022/09/14 00:41:26;;;;;;;13.57;6.50;;;;;;;12.13;75.79;100108.36;125704;1099;104274;-79
2022/09/14 00:44:00;;;;;;;13.67;6.53;;;;;;;12.11;75.69;100110.95;124747;1099;104172;-79
2022/09/14 00:46:35;;;;;;;12.80;6.53;;;;;;;12.10;75.83;100103.91;124822;1099;104162;-79
2022/09/14 00:49:11;;;;;;;13.73;7.13;;;;;;;12.11;75.76;100103.06;124839;1099;102778;-79
2022/09/14 00:51:47;;;;;;;12.90;7.37;;;;;;;12.12;75.94;100110.08;124849;1099;104724;-80
2022/09/14 00:54:19;;;;;;;14.07;6.90;;;;;;;12.11;75.76;100103.06;124792;1099;101798;-80
2022/09/14 00:56:51;;;;;;;13.57;7.30;;;;;;;12.11;75.99;100108.33;124871;1099;104348;-79
2022/09/14 00:59:25;;;;;;;15.50;7.13;;;;;;;12.13;76.03;100106.61;124755;1099;104345;-79
2022/09/14 01:01:57;;;;;;;12.60;6.70;;;;;;;12.13;75.95;100105.73;124833;1099;102771;-79
2022/09/14 01:04:29;;;;;;;16.07;8.03;;;;;;;12.13;76.11;100111.87;124806;1099;102833;-79
2022/09/14 01:07:12;;;;;;;15.23;7.37;;;;;;;12.13;76.39;100103.09;124822;1099;104281;-79
2022/09/14 01:09:54;;;;;;;16.83;7.33;;;;;;;12.11;76.17;100110.08;124831;1098;102888;-79
2022/09/14 01:12:32;;;;;;;17.93;7.77;;;;;;;12.11;76.15;100107.45;124814;1099;104363;-79
2022/09/14 01:15:09;;;;;;;13.53;6.97;;;;;;;12.11;76.31;100095.17;124813;1099;102016;-78
2022/09/14 01:17:44;;;;;;;16.40;7.50;;;;;;;12.12;76.50;100089.03;124748;1099;104193;-79
2022/09/14 01:20:26;;;;;;;15.13;7.50;;;;;;;12.12;76.46;100088.16;124840;1099;102111;-79
2022/09/14 01:23:09;;;;;;;16.27;7.50;;;;;;;12.11;76.44;100089.03;124822;1099;103078;-79
2022/09/14 01:26:12;;;;;;;17.07;7.35;;;;;;;12.11;76.51;100089.91;124789;1099;102236;-79
2022/09/14 01:28:50;;;;;;;17.10;7.33;;;;;;;12.13;76.57;100089.95;124809;1099;102874;-79
2022/09/14 01:31:29;;;;;;;15.77;7.20;;;;;;;12.14;76.63;100087.35;124882;1099;102165;-79
2022/09/14 01:34:10;;;;;;;16.17;6.77;;;;;;;12.16;76.59;100080.38;125651;1099;101790;-78
2022/09/14 01:36:50;;;;;;;13.20;6.70;;;;;;;12.17;76.81;100086.52;125912;1098;104233;-80
2022/09/14 01:39:23;;;;;;;14.43;6.73;;;;;;;12.16;76.69;100075.11;125646;1099;102537;-80
2022/09/14 01:41:55;;;;;;;17.07;7.17;;;;;;;12.17;76.99;100076.91;125655;1099;103207;-79
2022/09/14 01:44:31;;;;;;;16.80;7.70;;;;;;;12.19;77.13;100087.45;125714;1099;102874;-79
2022/09/14 01:47:09;;;;;;;14.27;7.10;;;;;;;12.20;76.74;100083.95;125690;1099;104267;-79
2022/09/14 01:49:47;;;;;;;16.53;7.07;;;;;;;12.20;76.52;100087.49;125731;1098;104276;-79
2022/09/14 01:52:22;;;;;;;15.90;6.93;;;;;;;12.21;76.76;100089.25;124806;1099;104162;-80
2022/09/14 01:54:58;;;;;;;14.17;7.00;;;;;;;12.23;76.75;100087.56;124325;1099;104232;-79
2022/09/14 01:57:34;;;;;;;15.53;7.07;;;;;;;12.22;76.94;100083.14;124726;1099;104236;-80
2022/09/14 02:00:10;;;;;;;13.63;6.93;;;;;;;12.27;77.17;100090.27;124892;1099;104220;-79
2022/09/14 02:02:48;;;;;;;13.90;6.60;;;;;;;12.29;77.18;100080.65;124787;1099;102127;-79
2022/09/14 02:05:24;;;;;;;14.83;6.83;;;;;;;12.31;77.18;100092.08;124834;1099;104166;-79
2022/09/14 02:07:56;;;;;;;15.90;6.90;;;;;;;12.33;77.20;100088.64;124812;1099;104166;-80
2022/09/14 02:10:28;;;;;;;13.63;6.60;;;;;;;12.35;77.35;100086.92;125768;1098;104638;-79
2022/09/14 02:12:59;;;;;;;13.90;6.93;;;;;;;12.36;77.45;100078.19;125709;1099;104188;-79
2022/09/14 02:15:31;;;;;;;18.90;7.37;;;;;;;12.37;77.28;100077.34;125789;1098;104169;-78
2022/09/14 02:18:02;;;;;;;17.10;6.90;;;;;;;12.39;77.30;100069.48;125640;1099;103277;-79
2022/09/14 02:20:39;;;;;;;16.17;7.30;;;;;;;12.40;77.38;100065.98;125696;1099;104173;-79
2022/09/14 02:23:10;;;;;;;14.90;7.10;;;;;;;12.41;77.52;100065.13;125725;1099;104191;-79
2022/09/14 02:25:42;;;;;;;18.30;6.90;;;;;;;12.43;77.56;100067.80;125675;1099;104166;-79
2022/09/14 02:28:13;;;;;;;14.07;7.33;;;;;;;12.43;77.55;100062.53;125693;1099;104377;-79
2022/09/14 02:30:55;;;;;;;14.83;7.00;;;;;;;12.41;77.52;100065.13;125718;1098;104243;-79
2022/09/14 02:33:35;;;;;;;13.37;6.80;;;;;;;12.41;77.65;100068.64;125690;1099;104194;-79
2022/09/14 02:36:16;;;;;;;15.37;7.03;;;;;;;12.43;77.50;100063.41;125717;1099;104261;-79
2022/09/14 02:38:56;;;;;;;13.97;7.13;;;;;;;12.44;77.72;100059.94;125690;1099;104197;-79
2022/09/14 02:41:38;;;;;;;15.17;7.00;;;;;;;12.45;77.75;100053.83;125665;1099;104236;-79
2022/09/14 02:44:18;;;;;;;13.03;6.83;;;;;;;12.43;77.59;100047.63;124843;1099;104227;-79
2022/09/14 02:47:00;;;;;;;15.40;7.30;;;;;;;12.43;77.66;100047.63;124784;1099;104194;-80
2022/09/14 02:49:44;;;;;;;15.90;7.35;;;;;;;12.45;77.67;100035.41;124915;1098;104271;-79
2022/09/14 02:52:19;;;;;;;14.33;6.57;;;;;;;12.46;77.89;100037.16;124734;1099;102867;-79
2022/09/14 02:54:57;;;;;;;14.60;7.03;;;;;;;12.44;77.92;100041.52;124787;1099;102903;-79
2022/09/14 02:57:29;;;;;;;16.63;7.13;;;;;;;12.44;77.74;100043.27;124781;1099;102451;-79
2022/09/14 03:00:00;;;;;;;15.90;7.30;;;;;;;12.43;77.75;100044.98;124800;1099;104306;-79
2022/09/14 03:02:31;;;;;;;17.23;7.67;;;;;;;12.43;77.92;100044.11;124882;1098;104313;-79
2022/09/14 03:05:02;;;;;;;17.97;7.43;;;;;;;12.40;78.00;100037.03;124803;1099;104243;-79
2022/09/14 03:07:33;;;;;;;16.87;7.00;;;;;;;12.38;77.87;100044.02;124845;1099;104294;-79
2022/09/14 03:10:05;;;;;;;16.13;8.03;;;;;;;12.36;77.56;100051.00;124756;1099;104156;-78
2022/09/14 03:12:39;;;;;;;16.63;7.57;;;;;;;12.36;77.90;100051.00;124809;1099;104195;-79
2022/09/14 03:15:12;;;;;;;17.13;8.00;;;;;;;12.37;78.12;100044.86;124773;1099;104238;-80
2022/09/14 03:17:47;;;;;;;15.90;7.50;;;;;;;12.36;78.14;100046.61;124813;1098;104267;-79
2022/09/14 03:20:23;;;;;;;17.17;7.70;;;;;;;12.32;78.07;100049.14;124942;1099;104201;-79
2022/09/14 03:22:55;;;;;;;17.87;7.93;;;;;;;12.29;77.81;100047.33;124817;1099;104079;-79
2022/09/14 03:25:26;;;;;;;16.23;7.70;;;;;;;12.28;77.80;100049.92;124781;1099;104099;-79
2022/09/14 03:28:00;;;;;;;15.43;7.67;;;;;;;12.22;77.95;100048.95;124779;1099;104235;-79
2022/09/14 03:30:31;;;;;;;17.07;8.10;;;;;;;12.20;78.07;100048.03;124908;1098;104287;-79
2022/09/14 03:33:03;;;;;;;17.20;8.33;;;;;;;12.18;77.94;100047.09;124869;1099;104252;-79
2022/09/14 03:35:34;;;;;;;18.33;7.57;;;;;;;12.16;77.91;100050.56;124833;1099;104153;-79
2022/09/14 03:38:05;;;;;;;16.77;8.03;;;;;;;12.15;77.96;100041.77;124856;1099;104195;-79
2022/09/14 03:40:36;;;;;;;16.50;7.50;;;;;;;12.16;78.31;100048.81;124859;1099;102248;-79
2022/09/14 03:43:11;;;;;;;18.50;8.27;;;;;;;12.17;77.98;100050.59;124933;1099;102110;-79
2022/09/14 03:45:42;;;;;;;17.07;8.23;;;;;;;12.15;77.99;100044.39;125723;1099;104191;-79
2022/09/14 03:48:14;;;;;;;17.50;8.37;;;;;;;12.15;78.47;100057.55;125671;1099;104214;-79
2022/09/14 03:50:46;;;;;;;20.50;8.43;;;;;;;12.15;78.00;100060.17;125565;1099;104185;-79
2022/09/14 03:53:17;;;;;;;20.53;8.93;;;;;;;12.14;78.14;100054.88;125680;1099;102212;-80
2022/09/14 03:55:48;;;;;;;20.57;8.57;;;;;;;12.15;78.17;100059.30;125730;1099;104287;-80
2022/09/14 03:58:19;;;;;;;20.40;8.43;;;;;;;12.13;78.10;100059.27;125727;1099;102265;-80
2022/09/14 04:00:51;;;;;;;19.83;9.37;;;;;;;12.13;78.11;100061.02;125705;1099;104155;-77
2022/09/14 04:03:22;;;;;;;17.77;8.33;;;;;;;12.12;78.03;100053.97;124866;1099;104294;-77
2022/09/14 04:05:57;;;;;;;20.10;8.63;;;;;;;12.12;77.88;100059.23;124841;1099;104163;-78
2022/09/14 04:08:29;;;;;;;17.47;8.13;;;;;;;12.13;77.98;100054.00;124859;1099;104233;-77
2022/09/14 04:11:00;;;;;;;18.13;8.30;;;;;;;12.16;78.16;100047.94;124845;1099;104159;-77
2022/09/14 04:13:31;;;;;;;20.43;8.73;;;;;;;12.17;77.80;100055.86;124890;1099;102944;-77
2022/09/14 04:16:04;;;;;;;16.93;8.37;;;;;;;12.19;78.20;100055.89;124865;1098;102830;-77
2022/09/14 04:18:35;;;;;;;19.63;8.63;;;;;;;12.19;78.32;100056.77;124835;1099;102029;-77
2022/09/14 04:21:10;;;;;;;27.93;10.03;;;;;;;12.19;78.29;100056.77;124823;1099;104163;-77
2022/09/14 04:23:41;;;;;;;21.27;9.10;;;;;;;12.19;78.33;100061.16;124834;1099;102979;-77
2022/09/14 04:26:15;;;;;;;22.60;9.80;;;;;;;12.19;78.07;100061.16;124945;1099;104159;-78
2022/09/14 04:28:45;;;;;;;;;;;;;;;12.19;78.33;100055.89;124965;1099;104236;-78
2022/09/14 04:31:16;;;;;;;22.10;9.40;;;;;;;12.22;78.33;100056.84;124961;1099;102361;-79
2022/09/14 04:33:49;;;;;;;21.83;9.50;;;;;;;12.26;78.29;100070.94;125374;1099;101812;-80
2022/09/14 04:36:22;;;;;;;29.77;10.10;;;;;;;12.31;78.36;100068.41;125441;1098;102480;-80
2022/09/14 04:38:59;;;;;;;24.00;11.33;;;;;;;12.40;78.35;100063.34;126010;1097;104617;-79
2022/09/14 04:41:31;;;;;;;17.93;9.47;;;;;;;12.51;78.34;100067.11;125202;1099;104184;-80
2022/09/14 04:44:04;;;;;;;23.05;9.73;;;;;;;12.59;78.69;100062.88;125203;1099;102115;-80
2022/09/14 04:46:35;;;;;;;19.90;9.17;;;;;;;12.69;78.19;100060.44;125060;1099;104172;-78
2022/09/14 04:49:07;;;;;;;19.37;9.63;;;;;;;12.78;78.58;100071.16;124931;1098;102401;-78
2022/09/14 04:51:40;;;;;;;19.12;9.00;;;;;;;12.84;78.21;100060.75;124880;1099;104268;-78
2022/09/14 04:54:16;;;;;;;18.87;9.20;;;;;;;12.88;78.43;100062.56;124891;1098;104172;-78
2022/09/14 04:56:47;;;;;;;23.67;9.40;;;;;;;12.90;78.25;100059.95;124829;1099;104191;-77
2022/09/14 04:59:18;;;;;;;22.73;9.60;;;;;;;12.95;78.14;100058.32;124955;1099;104210;-78
2022/09/14 05:01:50;;;;;;;17.95;8.90;;;;;;;13.01;78.21;100066.34;124998;1099;102873;-78
2022/09/14 05:04:23;;;;;;;21.65;9.70;;;;;;;13.11;77.92;100067.39;124877;1099;104204;-77
2022/09/14 05:06:55;;;;;;;19.33;9.30;;;;;;;13.18;77.80;100074.52;125077;1098;104166;-79
2022/09/14 05:09:26;;;;;;;20.57;9.43;;;;;;;13.26;78.04;100077.30;125132;1099;102759;-77
2022/09/14 05:11:57;;;;;;;17.13;8.47;;;;;;;13.33;78.17;100075.69;124862;1099;102343;-77
2022/09/14 05:14:28;;;;;;;18.93;9.13;;;;;;;13.32;77.82;100064.23;125011;1099;104153;-77
2022/09/14 05:17:01;;;;;;;18.63;8.90;;;;;;;13.43;77.89;100067.09;124934;1099;104392;-79
2022/09/14 05:19:34;;;;;;;20.62;9.30;;;;;;;13.46;78.36;100062.78;124961;1099;104222;-78
2022/09/14 05:22:05;;;;;;;22.27;9.53;;;;;;;13.51;77.55;100070.77;124927;1099;102742;-78
2022/09/14 05:24:37;;;;;;;21.77;9.00;;;;;;;13.55;78.42;100064.66;125093;1099;102519;-79
2022/09/14 05:27:08;;;;;;;20.60;9.40;;;;;;;13.58;77.50;100067.35;125022;1099;104286;-79
2022/09/14 05:29:43;;;;;;;17.97;8.80;;;;;;;13.63;77.89;100057.80;125018;1099;104182;-79
2022/09/14 05:32:16;;;;;;;17.83;9.20;;;;;;;13.72;77.77;100064.94;125088;1099;102004;-78
2022/09/14 05:34:51;;;;;;;16.70;8.40;;;;;;;13.78;77.84;100065.04;124915;1099;102278;-78
2022/09/14 05:37:23;;;;;;;19.23;8.97;;;;;;;13.87;77.76;100073.95;124888;1099;104313;-78
2022/09/14 05:39:54;;;;;;;17.30;8.77;;;;;;;13.93;77.61;100074.05;124791;1099;104310;-77
2022/09/14 05:42:31;;;;;;;18.75;9.00;;;;;;;14.00;77.48;100074.16;125300;1099;102181;-81
2022/09/14 05:45:03;;;;;;;19.73;8.80;;;;;;;14.05;77.95;100071.59;125719;1098;104234;-79
2022/09/14 05:47:35;;;;;;;16.63;8.83;;;;;;;14.09;77.59;100073.42;124845;1099;102114;-78
2022/09/14 05:50:08;;;;;;;16.63;8.97;;;;;;;14.16;77.17;100066.47;125152;1102;104208;-78
2022/09/14 05:52:39;;;;;;;16.67;8.37;;;;;;;14.24;76.92;100070.09;125351;1099;102214;-77
2022/09/14 05:55:13;;;;;;;14.13;7.47;;;;;;;14.34;77.64;100074.64;124852;1099;102790;-78
2022/09/14 05:57:51;;;;;;;16.70;8.43;;;;;;;14.43;77.85;100073.89;124945;1099;104195;-79
2022/09/14 06:00:22;;;;;;;17.10;8.47;;;;;;;14.52;76.74;100074.02;125732;1099;102792;-77
2022/09/14 06:02:56;;;;;;;18.37;8.00;;;;;;;14.57;77.10;100074.08;125431;1099;104180;-80
2022/09/14 06:05:30;;;;;;;17.73;8.03;;;;;;;14.61;76.47;100075.02;126228;1098;104258;-77
2022/09/14 06:08:02;;;;;;;14.73;7.72;;;;;;;14.65;77.23;100075.08;116306;1099;10001781;-80
2022/09/14 06:10:37;;;;;;;14.77;7.80;;;;;;;14.72;76.70;100069.02;125332;1099;102343;-80
2022/09/14 06:13:24;;;;;;;15.65;7.55;;;;;;;14.79;77.16;100069.97;125094;1099;102612;-78
2022/09/14 06:16:03;;;;;;;17.60;8.50;;;;;;;14.90;76.04;100072.73;126461;1098;102999;-78
2022/09/14 06:18:36;;;;;;;15.50;7.43;;;;;;;14.99;76.94;100080.76;124793;1099;102160;-77
2022/09/14 06:21:11;;;;;;;17.27;7.30;;;;;;;15.07;76.57;100076.44;124913;1099;104345;-78
2022/09/14 06:23:54;;;;;;;16.50;7.63;;;;;;;15.17;76.91;100072.13;124975;1099;104157;-78
2022/09/14 06:26:35;;;;;;;14.80;7.25;;;;;;;15.28;76.04;100075.75;125886;1098;104252;-78
2022/09/14 06:29:11;;;;;;;13.57;6.90;;;;;;;15.40;76.22;100063.54;124753;1099;102910;-77
2022/09/14 06:31:43;;;;;;;12.95;6.90;;;;;;;15.52;76.22;100068.03;124961;1099;104057;-80
2022/09/14 06:34:19;;;;;;;15.70;7.37;;;;;;;15.66;75.66;100076.99;124837;1099;104157;-79
2022/09/14 06:37:02;;;;;;;14.97;7.10;;;;;;;15.86;75.34;100078.92;125046;1099;102413;-79
2022/09/14 06:39:40;;;;;;;14.03;7.40;;;;;;;16.07;75.74;100076.43;126307;1098;102414;-78
2022/09/14 06:42:22;;;;;;;12.90;6.67;;;;;;;16.24;75.56;100079.19;125660;1099;102425;-78
2022/09/14 06:44:57;;;;;;;14.53;6.97;;;;;;;16.42;75.24;100077.50;124768;1099;108094;-78
2022/09/14 06:47:38;;;;;;;12.90;6.43;;;;;;;16.54;75.08;100078.44;124751;1099;104310;-78
2022/09/14 06:50:16;;;;;;;10.93;5.83;;;;;;;16.67;74.49;100081.14;124414;1099;104291;-78
2022/09/14 06:52:49;;;;;;;10.70;5.50;;;;;;;16.78;74.19;100083.84;124805;1099;101914;-79
2022/09/14 06:55:24;;;;;;;12.25;5.92;;;;;;;16.89;74.12;100088.34;126046;1098;118055;-78
2022/09/14 06:58:01;;;;;;;13.23;6.40;;;;;;;16.98;73.81;100079.52;124855;1099;101876;-77
2022/09/14 07:00:38;;;;;;;16.57;6.43;;;;;;;17.06;73.92;100090.14;124889;1099;104192;-80
2022/09/14 07:03:14;;;;;;;11.53;5.27;;;;;;;17.15;73.53;100090.16;124855;1099;104214;-79
2022/09/14 07:06:09;;;;;;;10.43;5.13;;;;;;;17.21;73.19;100092.83;124541;1099;101887;-79
2022/09/14 07:08:46;;;;;;;9.97;4.93;;;;;;;17.32;72.58;100094.63;125763;1099;102370;-82
2022/09/14 07:11:32;;;;;;;11.33;5.10;;;;;;;17.37;72.38;100085.81;125636;1099;104047;-80
2022/09/14 07:14:07;;;;;;;9.70;4.90;;;;;;;17.41;71.51;100084.03;125133;1099;104152;-79
2022/09/14 07:16:43;;;;;;;10.20;5.50;;;;;;;17.48;72.10;100084.91;125697;1099;104155;-80
2022/09/14 07:19:21;;;;;;;9.40;5.23;;;;;;;17.54;71.82;100083.14;125772;1099;102220;-80
2022/09/14 07:21:56;;;;;;;9.93;4.97;;;;;;;17.66;71.11;100086.70;125688;1099;102057;-79
2022/09/14 07:24:39;;;;;;;11.15;4.95;;;;;;;17.80;71.24;100082.27;125657;1099;104050;-80
2022/09/14 07:27:33;;;;;;;7.90;4.70;;;;;;;17.91;70.52;100082.30;125335;1099;102675;-81
2022/09/14 07:30:23;;;;;;;7.60;4.57;;;;;;;18.07;70.73;100077.84;125959;1098;101864;-79
2022/09/14 07:33:01;;;;;;;10.37;4.60;;;;;;;18.22;70.44;100079.60;126158;1098;104191;-79
2022/09/14 07:35:42;;;;;;;10.40;4.40;;;;;;;18.32;69.80;100076.92;125683;1099;102929;-79
2022/09/14 07:38:26;;;;;;;8.37;4.47;;;;;;;18.39;69.97;100064.50;125162;1099;102389;-79
2022/09/14 07:41:25;;;;;;;8.60;4.43;;;;;;;18.46;69.27;100060.03;125664;1099;102357;-80
2022/09/14 07:44:02;;;;;;;9.47;4.53;;;;;;;18.54;69.35;100058.22;125770;1099;104185;-80
2022/09/14 07:46:47;;;;;;;7.73;4.40;;;;;;;18.62;68.88;100051.13;125784;1099;102045;-79
2022/09/14 07:49:47;;;;;;;8.63;4.10;;;;;;;18.70;68.12;100051.09;125365;1099;102311;-80
2022/09/14 07:52:38;;;;;;;7.50;4.20;;;;;;;18.84;66.41;100051.94;125231;1099;102140;-82
2022/09/14 07:55:20;;;;;;;8.73;3.77;;;;;;;19.06;67.50;100051.81;125726;1099;102088;-79
2022/09/14 07:58:06;;;;;;;4.15;3.37;;;;;;;19.22;65.42;100041.95;125684;1098;104380;-81
2022/09/14 08:00:45;;;;;;;6.63;3.40;;;;;;;19.38;65.74;100043.62;125308;1099;101805;-81
2022/09/14 08:03:16;;;;;;;6.93;3.47;;;;;;;19.52;64.96;100046.14;126206;1098;102884;-80
2022/09/14 08:06:10;;;;;;;4.93;3.20;;;;;;;19.66;64.86;100048.68;126477;1098;104274;-80
2022/09/14 08:08:50;;;;;;;7.60;3.53;;;;;;;19.79;64.88;100036.20;125188;1098;104237;-80
2022/09/14 08:11:27;;;;;;;6.33;3.40;;;;;;;19.91;63.07;100033.42;125890;1099;103277;-79
2022/09/14 08:14:05;;;;;;;4.90;3.23;;;;;;;20.01;62.48;100028.88;125065;1099;104238;-79
2022/09/14 08:16:39;;;;;;;7.27;3.33;;;;;;;20.12;63.15;100026.09;125693;1099;104194;-77
2022/09/14 08:19:19;;;;;;;4.50;3.17;;;;;;;20.20;62.47;100028.67;124877;1099;103030;-77
2022/09/14 08:21:56;;;;;;;5.90;2.85;;;;;;;20.28;62.68;100027.67;125019;1099;102829;-77
2022/09/14 08:24:32;;;;;;;4.87;2.87;;;;;;;20.34;61.24;100018.73;125666;1098;104163;-78
2022/09/14 08:27:15;;;;;;;5.53;3.00;;;;;;;20.45;61.57;100003.48;125608;1099;104169;-80
2022/09/14 08:29:53;;;;;;;7.50;2.90;;;;;;;20.54;60.80;100006.95;125586;1099;104228;-80
2022/09/14 08:32:32;;;;;;;7.03;3.37;;;;;;;20.60;60.88;99999.75;126565;1098;104169;-80
2022/09/14 08:35:12;;;;;;;5.07;3.13;;;;;;;20.63;60.18;99996.14;125696;1098;104204;-81
2022/09/14 08:37:58;;;;;;;5.20;2.83;;;;;;;20.72;60.50;100004.05;125756;1099;104243;-83
2022/09/14 08:40:33;;;;;;;5.67;2.83;;;;;;;20.74;59.15;99996.03;125669;1099;104342;-81
2022/09/14 08:43:15;;;;;;;4.23;2.70;;;;;;;20.82;59.35;99994.16;126794;1099;102323;-79
2022/09/14 08:45:52;;;;;;;4.97;2.60;;;;;;;20.89;58.96;100002.94;125659;1099;104185;-80
2022/09/14 08:48:37;;;;;;;4.07;2.70;;;;;;;20.90;57.46;99992.25;125581;1099;104259;-81
2022/09/14 08:51:10;;;;;;;5.80;3.17;;;;;;;20.98;57.58;99987.67;125703;1098;104249;-79
2022/09/14 08:54:01;;;;;;;7.93;3.80;;;;;;;21.08;58.00;99988.41;125752;1099;104169;-82
2022/09/14 08:56:49;;;;;;;5.37;2.67;;;;;;;21.13;56.61;99980.33;125999;1099;104635;-79
2022/09/14 08:59:50;;;;;;;3.57;2.63;;;;;;;21.26;56.03;99981.91;125679;1099;104169;-81
2022/09/14 09:03:00;;;;;;;3.20;2.50;;;;;;;21.35;55.69;99971.08;125678;1099;102290;-79
2022/09/14 09:05:44;;;;;;;2.93;2.60;;;;;;;21.38;55.61;99964.82;125682;1099;104252;-78
2022/09/14 09:08:29;;;;;;;3.87;2.30;;;;;;;21.45;53.97;99968.25;125166;1099;104217;-79
2022/09/14 09:11:12;;;;;;;2.80;2.50;;;;;;;21.52;54.17;99973.49;125707;1099;104264;-78
2022/09/14 09:13:59;;;;;;;4.10;2.60;;;;;;;21.64;53.56;99977.70;125708;1099;102800;-81
2022/09/14 09:16:33;;;;;;;4.00;2.43;;;;;;;21.71;53.09;99979.38;125693;1099;101879;-80
2022/09/14 09:19:19;;;;;;;6.97;2.60;;;;;;;21.75;53.21;99982.86;126410;1099;102099;-83
2022/09/14 09:22:01;;;;;;;3.37;2.42;;;;;;;21.83;53.77;99982.72;125744;1099;104230;-81
2022/09/14 09:24:43;;;;;;;;;;;;;;;21.85;51.98;99976.45;125771;1098;102743;-81
2022/09/14 09:27:25;;;;;;;3.23;2.50;;;;;;;21.89;52.94;99978.16;125427;1099;101941;-81
2022/09/14 09:30:03;;;;;;;8.33;2.67;;;;;;;21.95;51.77;99976.27;126696;1099;101767;-82
2022/09/14 09:32:52;;;;;;;5.80;2.73;;;;;;;22.00;52.10;99982.39;125208;1099;102613;-82
2022/09/14 09:35:58;;;;;;;3.17;2.63;;;;;;;22.07;51.57;99973.36;125835;1099;104208;-81
2022/09/14 09:39:06;;;;;;;4.23;2.83;;;;;;;22.17;51.34;99964.23;125230;1099;103003;-84
2022/09/14 09:41:58;;;;;;;3.97;2.20;;;;;;;22.24;51.87;99968.55;125833;1099;102535;-82
2022/09/14 09:44:56;;;;;;;6.40;3.63;;;;;;;22.26;49.18;99965.84;125248;1099;104251;-79
2022/09/14 09:48:25;;;;;;;;;;;;;;;;;;;;;
2022/09/14 09:51:28;;;;;;;2.63;2.43;;;;;;;22.37;49.41;99968.33;125709;1099;104156;-82
2022/09/14 09:54:31;;;;;;;2.77;2.20;;;;;;;22.40;49.38;99969.13;125700;1099;102233;-81
2022/09/14 09:57:22;;;;;;;3.43;2.17;;;;;;;22.48;49.29;99970.77;126413;1098;102517;-81
2022/09/14 10:00:23;;;;;;;3.20;2.17;;;;;;;22.52;48.33;99962.65;125817;1099;102800;-82
2022/09/14 10:02:57;;;;;;;4.23;2.60;;;;;;;22.55;47.35;99961.71;125808;1098;103565;-83
2022/09/14 10:05:35;;;;;;;3.87;2.60;;;;;;;22.55;47.55;99962.58;125829;1099;102307;-79
2022/09/14 10:08:18;;;;;;;7.20;2.30;;;;;;;22.56;46.87;99958.09;125760;1099;104355;-80
2022/09/14 10:11:32;;;;;;;3.92;2.50;;;;;;;22.62;47.06;99963.31;126669;1098;103596;-81
2022/09/14 10:14:21;;;;;;;5.00;2.57;;;;;;;22.70;47.32;99955.12;125796;1099;102211;-81
2022/09/14 10:17:05;;;;;;;3.13;2.30;;;;;;;22.77;46.95;99956.75;124573;1099;102487;-81
2022/09/14 10:19:50;;;;;;;3.13;2.30;;;;;;;22.78;47.14;99953.14;124963;1099;102841;-80
2022/09/14 10:22:30;;;;;;;2.80;2.40;;;;;;;22.77;44.96;99946.05;124965;1099;102027;-80
2022/09/14 10:25:21;;;;;;;4.30;2.40;;;;;;;22.78;45.69;99945.11;124974;1099;104336;-79
2022/09/14 10:28:01;;;;;;;3.43;2.20;;;;;;;22.85;45.37;99951.22;126196;1098;102032;-79
2022/09/14 10:30:49;;;;;;;4.03;2.60;;;;;;;22.89;45.00;99939.52;125524;1099;103197;-80
2022/09/14 10:33:29;;;;;;;5.10;2.40;;;;;;;22.98;45.50;99947.32;126488;1099;102032;-80
2022/09/14 10:36:14;;;;;;;3.67;2.40;;;;;;;23.02;44.82;99945.47;126405;1099;102884;-80
2022/09/14 10:38:57;;;;;;;3.13;2.20;;;;;;;23.11;45.47;99943.47;126359;1098;103030;-79
2022/09/14 10:42:00;;;;;;;2.60;2.37;;;;;;;23.18;44.37;99957.56;125727;1099;104057;-80
2022/09/14 10:44:59;;;;;;;2.80;2.50;;;;;;;23.23;44.48;99952.97;126455;1098;102009;-80
2022/09/14 10:48:05;;;;;;;2.90;2.57;;;;;;;23.20;44.29;99955.72;126757;1098;102242;-79
2022/09/14 10:50:55;;;;;;;3.70;2.40;;;;;;;23.25;44.30;99936.88;125895;1099;118318;-80
2022/09/14 10:53:50;;;;;;;4.23;2.27;;;;;;;23.30;44.39;99940.33;126636;1098;104169;-80
2022/09/14 10:56:37;;;;;;;4.30;2.40;;;;;;;23.40;44.17;99940.97;125785;1099;101774;-80
2022/09/14 10:59:34;;;;;;;3.93;2.33;;;;;;;23.42;43.90;99934.66;125631;1098;104223;-80
2022/09/14 11:02:46;;;;;;;3.03;2.47;;;;;;;23.47;43.35;99922.02;125682;1098;104217;-79
2022/09/14 11:05:25;;;;;;;4.03;2.53;;;;;;;23.53;43.05;99930.80;125651;1100;104159;-78
2022/09/14 11:08:25;;;;;;;4.50;2.63;;;;;;;23.55;43.14;99931.66;126497;1098;104371;-78
2022/09/14 11:11:05;;;;;;;;;;;;;;;23.53;39.49;99920.09;125772;1098;104217;-80
2022/09/14 11:14:09;;;;;;;2.80;2.60;;;;;;;23.49;42.52;99909.47;125706;1099;104165;-78
2022/09/14 11:17:07;;;;;;;3.60;2.70;;;;;;;23.47;43.26;99921.16;124952;1099;104181;-77
2022/09/14 11:19:52;;;;;;;7.85;3.20;;;;;;;23.48;42.95;99925.57;125470;1099;104166;-77
2022/09/14 11:22:39;;;;;;;5.07;3.07;;;;;;;23.46;43.10;99919.39;125650;1099;102055;-79
2022/09/14 11:25:17;;;;;;;3.93;2.77;;;;;;;23.37;42.60;99908.92;125095;1099;102925;-78
2022/09/14 11:27:56;;;;;;;7.17;3.20;;;;;;;23.32;42.77;99912.59;124925;1099;104160;-78
2022/09/14 11:30:39;;;;;;;4.07;2.90;;;;;;;23.29;42.96;99918.02;124939;1099;104258;-78
2022/09/14 11:33:17;;;;;;;4.97;2.77;;;;;;;23.22;43.22;99921.80;124877;1099;104150;-77
2022/09/14 11:35:53;;;;;;;4.40;2.90;;;;;;;23.13;43.08;99922.89;125673;1099;104261;-79
2022/09/14 11:38:43;;;;;;;4.07;2.47;;;;;;;23.09;42.53;99920.33;125756;1099;104182;-78
2022/09/14 11:41:29;;;;;;;8.60;2.70;;;;;;;23.06;42.87;99920.38;125028;1099;102830;-78
2022/09/14 11:44:10;;;;;;;5.17;2.80;;;;;;;23.08;42.40;99919.47;125708;1098;104185;-79
2022/09/14 11:46:51;;;;;;;4.80;2.33;;;;;;;23.06;42.29;99910.58;125030;1099;104219;-80
2022/09/14 11:49:43;;;;;;;2.50;2.30;;;;;;;23.07;42.43;99917.66;125756;1099;102282;-80
2022/09/14 11:52:24;;;;;;;3.93;2.33;;;;;;;23.13;42.72;99914.00;125722;1099;104252;-79
2022/09/14 11:55:02;;;;;;;5.27;2.40;;;;;;;23.22;42.59;99926.25;126291;1099;102135;-78
2022/09/14 11:57:35;;;;;;;3.43;2.00;;;;;;;23.30;42.06;99922.47;125670;1098;104079;-78
2022/09/14 12:00:32;;;;;;;5.17;2.37;;;;;;;23.42;41.75;99913.25;125695;1099;103261;-80
2022/09/14 12:03:19;;;;;;;3.43;1.97;;;;;;;23.48;41.19;99917.54;124388;1099;102337;-79